sensor_id;sensor_type;location;lat;lon;timestamp;P1;durP1;ratioP1;P2;durP2;ratioP2
69588;SDS011;56792;50.644;17.984;2024-03-23T00:54:20;32.90;;;18.70;;
69588;SDS011;56792;50.644;17.984;2024-03-23T00:56:50;34.80;;;18.60;;
69588;SDS011;56792;50.644;17.984;2024-03-23T00:59:21;33.60;;;17.30;;
69588;SDS011;56792;50.644;17.984;2024-03-23T01:01:55;34.70;;;17.90;;
69588;SDS011;56792;50.644;17.984;2024-03-23T01:04:25;34.00;;;17.60;;
69588;SDS011;56792;50.644;17.984;2024-03-23T01:06:56;31.20;;;16.90;;
69588;SDS011;56792;50.644;17.984;2024-03-23T01:09:26;36.60;;;17.70;;
69588;SDS011;56792;50.644;17.984;2024-03-23T01:11:57;33.20;;;17.80;;
69588;SDS011;56792;50.644;17.984;2024-03-23T01:14:27;33.70;;;18.10;;
69588;SDS011;56792;50.644;17.984;2024-03-23T01:16:58;32.80;;;16.90;;
69588;SDS011;56792;50.644;17.984;2024-03-23T01:19:28;33.10;;;17.80;;
69588;SDS011;56792;50.644;17.984;2024-03-23T01:21:59;35.00;;;16.90;;
69588;SDS011;56792;50.644;17.984;2024-03-23T01:24:29;33.30;;;17.60;;
69588;SDS011;56792;50.644;17.984;2024-03-23T01:27:00;31.80;;;16.50;;
69588;SDS011;56792;50.644;17.984;2024-03-23T01:29:31;32.60;;;16.80;;
69588;SDS011;56792;50.644;17.984;2024-03-23T01:32:01;31.40;;;17.40;;
69588;SDS011;56792;50.644;17.984;2024-03-23T01:34:32;35.10;;;17.50;;
69588;SDS011;56792;50.644;17.984;2024-03-23T01:37:03;27.80;;;16.10;;
69588;SDS011;56792;50.644;17.984;2024-03-23T01:39:34;35.40;;;17.40;;
69588;SDS011;56792;50.644;17.984;2024-03-23T01:42:05;33.20;;;17.40;;
69588;SDS011;56792;50.644;17.984;2024-03-23T01:44:35;30.90;;;17.30;;
69588;SDS011;56792;50.644;17.984;2024-03-23T01:47:07;30.30;;;17.40;;
69588;SDS011;56792;50.644;17.984;2024-03-23T01:49:38;34.20;;;16.60;;
69588;SDS011;56792;50.644;17.984;2024-03-23T01:52:09;30.60;;;16.10;;
69588;SDS011;56792;50.644;17.984;2024-03-23T01:54:40;33.60;;;16.00;;
69588;SDS011;56792;50.644;17.984;2024-03-23T01:57:11;32.30;;;16.60;;
69588;SDS011;56792;50.644;17.984;2024-03-23T01:59:42;31.00;;;16.10;;
69588;SDS011;56792;50.644;17.984;2024-03-23T02:02:12;30.50;;;16.10;;
69588;SDS011;56792;50.644;17.984;2024-03-23T02:04:45;30.90;;;14.90;;
69588;SDS011;56792;50.644;17.984;2024-03-23T02:07:16;32.30;;;16.70;;
69588;SDS011;56792;50.644;17.984;2024-03-23T02:09:46;27.20;;;14.90;;
69588;SDS011;56792;50.644;17.984;2024-03-23T02:12:18;30.80;;;15.60;;
69588;SDS011;56792;50.644;17.984;2024-03-23T02:14:49;29.70;;;15.70;;
69588;SDS011;56792;50.644;17.984;2024-03-23T02:17:19;27.00;;;15.00;;
69588;SDS011;56792;50.644;17.984;2024-03-23T02:19:50;32.20;;;15.00;;
69588;SDS011;56792;50.644;17.984;2024-03-23T02:22:20;30.10;;;16.20;;
69588;SDS011;56792;50.644;17.984;2024-03-23T02:24:51;33.70;;;14.70;;
69588;SDS011;56792;50.644;17.984;2024-03-23T02:27:21;28.10;;;15.60;;
69588;SDS011;56792;50.644;17.984;2024-03-23T02:29:53;30.10;;;15.80;;
69588;SDS011;56792;50.644;17.984;2024-03-23T02:32:23;28.80;;;16.20;;
69588;SDS011;56792;50.644;17.984;2024-03-23T02:34:54;28.40;;;15.40;;
69588;SDS011;56792;50.644;17.984;2024-03-23T02:37:24;26.20;;;14.70;;
69588;SDS011;56792;50.644;17.984;2024-03-23T02:39:55;28.10;;;14.60;;
69588;SDS011;56792;50.644;17.984;2024-03-23T02:42:25;30.30;;;15.60;;
69588;SDS011;56792;50.644;17.984;2024-03-23T02:44:56;26.10;;;14.50;;
69588;SDS011;56792;50.644;17.984;2024-03-23T02:47:27;25.50;;;13.60;;
69588;SDS011;56792;50.644;17.984;2024-03-23T02:49:57;29.00;;;14.10;;
69588;SDS011;56792;50.644;17.984;2024-03-23T02:52:28;26.00;;;12.80;;
69588;SDS011;56792;50.644;17.984;2024-03-23T02:54:59;28.60;;;13.90;;
69588;SDS011;56792;50.644;17.984;2024-03-23T02:57:30;29.60;;;15.10;;
69588;SDS011;56792;50.644;17.984;2024-03-23T03:00:01;27.10;;;14.40;;
69588;SDS011;56792;50.644;17.984;2024-03-23T03:02:33;25.40;;;13.50;;
69588;SDS011;56792;50.644;17.984;2024-03-23T03:05:04;27.50;;;13.40;;
69588;SDS011;56792;50.644;17.984;2024-03-23T03:07:36;27.50;;;14.50;;
69588;SDS011;56792;50.644;17.984;2024-03-23T03:10:09;27.80;;;13.80;;
69588;SDS011;56792;50.644;17.984;2024-03-23T03:12:39;24.40;;;13.70;;
69588;SDS011;56792;50.644;17.984;2024-03-23T03:15:10;27.90;;;14.60;;
69588;SDS011;56792;50.644;17.984;2024-03-23T03:17:41;24.60;;;13.30;;
69588;SDS011;56792;50.644;17.984;2024-03-23T03:20:12;27.90;;;15.00;;
69588;SDS011;56792;50.644;17.984;2024-03-23T03:22:45;27.10;;;14.70;;
69588;SDS011;56792;50.644;17.984;2024-03-23T03:25:16;26.00;;;13.20;;
69588;SDS011;56792;50.644;17.984;2024-03-23T03:27:47;26.60;;;13.80;;
69588;SDS011;56792;50.644;17.984;2024-03-23T03:30:17;23.90;;;13.20;;
69588;SDS011;56792;50.644;17.984;2024-03-23T03:32:48;23.90;;;12.80;;
69588;SDS011;56792;50.644;17.984;2024-03-23T03:35:20;24.90;;;12.70;;
69588;SDS011;56792;50.644;17.984;2024-03-23T03:37:50;24.00;;;12.60;;
69588;SDS011;56792;50.644;17.984;2024-03-23T03:40:21;22.60;;;13.50;;
69588;SDS011;56792;50.644;17.984;2024-03-23T03:42:52;25.70;;;13.30;;
69588;SDS011;56792;50.644;17.984;2024-03-23T03:45:22;23.50;;;12.10;;
69588;SDS011;56792;50.644;17.984;2024-03-23T03:47:53;26.50;;;14.00;;
69588;SDS011;56792;50.644;17.984;2024-03-23T03:50:24;23.10;;;13.30;;
69588;SDS011;56792;50.644;17.984;2024-03-23T03:52:54;25.40;;;14.40;;
69588;SDS011;56792;50.644;17.984;2024-03-23T03:55:25;27.50;;;13.00;;
69588;SDS011;56792;50.644;17.984;2024-03-23T03:57:55;25.40;;;12.70;;
69588;SDS011;56792;50.644;17.984;2024-03-23T04:00:26;24.20;;;13.70;;
69588;SDS011;56792;50.644;17.984;2024-03-23T04:02:56;25.60;;;12.50;;
69588;SDS011;56792;50.644;17.984;2024-03-23T04:05:27;22.60;;;12.90;;
69588;SDS011;56792;50.644;17.984;2024-03-23T04:07:57;28.60;;;13.20;;
69588;SDS011;56792;50.644;17.984;2024-03-23T04:10:28;24.00;;;14.30;;
69588;SDS011;56792;50.644;17.984;2024-03-23T04:12:58;27.10;;;13.80;;
69588;SDS011;56792;50.644;17.984;2024-03-23T04:15:29;25.70;;;13.90;;
69588;SDS011;56792;50.644;17.984;2024-03-23T04:17:59;24.80;;;13.90;;
69588;SDS011;56792;50.644;17.984;2024-03-23T04:20:30;24.90;;;13.40;;
69588;SDS011;56792;50.644;17.984;2024-03-23T04:23:01;32.00;;;14.90;;
69588;SDS011;56792;50.644;17.984;2024-03-23T04:25:31;25.10;;;13.60;;
69588;SDS011;56792;50.644;17.984;2024-03-23T04:28:02;25.70;;;13.60;;
69588;SDS011;56792;50.644;17.984;2024-03-23T04:30:33;25.20;;;12.60;;
69588;SDS011;56792;50.644;17.984;2024-03-23T04:33:05;24.60;;;12.80;;
69588;SDS011;56792;50.644;17.984;2024-03-23T04:35:36;23.10;;;12.80;;
69588;SDS011;56792;50.644;17.984;2024-03-23T04:38:07;23.30;;;12.30;;
69588;SDS011;56792;50.644;17.984;2024-03-23T04:40:37;24.30;;;12.90;;
69588;SDS011;56792;50.644;17.984;2024-03-23T04:43:07;26.40;;;12.90;;
69588;SDS011;56792;50.644;17.984;2024-03-23T04:45:38;22.70;;;12.40;;
69588;SDS011;56792;50.644;17.984;2024-03-23T04:48:09;26.00;;;14.30;;
69588;SDS011;56792;50.644;17.984;2024-03-23T04:50:40;28.10;;;13.10;;
69588;SDS011;56792;50.644;17.984;2024-03-23T04:53:10;20.40;;;9.70;;
69588;SDS011;56792;50.644;17.984;2024-03-23T04:55:41;22.10;;;12.40;;
69588;SDS011;56792;50.644;17.984;2024-03-23T04:58:11;24.90;;;12.80;;
69588;SDS011;56792;50.644;17.984;2024-03-23T05:00:42;24.60;;;13.30;;
69588;SDS011;56792;50.644;17.984;2024-03-23T05:03:12;23.10;;;13.00;;
69588;SDS011;56792;50.644;17.984;2024-03-23T05:05:43;22.60;;;12.40;;
69588;SDS011;56792;50.644;17.984;2024-03-23T05:08:13;23.50;;;13.40;;
69588;SDS011;56792;50.644;17.984;2024-03-23T05:10:44;25.30;;;14.40;;
69588;SDS011;56792;50.644;17.984;2024-03-23T05:13:15;25.60;;;13.50;;
69588;SDS011;56792;50.644;17.984;2024-03-23T05:15:52;22.60;;;12.20;;
69588;SDS011;56792;50.644;17.984;2024-03-23T05:18:23;20.40;;;12.20;;
69588;SDS011;56792;50.644;17.984;2024-03-23T05:20:57;26.00;;;13.60;;
69588;SDS011;56792;50.644;17.984;2024-03-23T05:23:29;20.60;;;12.10;;
69588;SDS011;56792;50.644;17.984;2024-03-23T05:26:00;22.40;;;12.80;;
69588;SDS011;56792;50.644;17.984;2024-03-23T05:28:30;22.90;;;13.20;;
69588;SDS011;56792;50.644;17.984;2024-03-23T05:31:01;21.20;;;11.80;;
69588;SDS011;56792;50.644;17.984;2024-03-23T05:33:31;23.80;;;13.00;;
69588;SDS011;56792;50.644;17.984;2024-03-23T05:36:03;20.10;;;12.20;;
69588;SDS011;56792;50.644;17.984;2024-03-23T05:38:36;21.20;;;13.20;;
69588;SDS011;56792;50.644;17.984;2024-03-23T05:41:07;22.00;;;12.60;;
69588;SDS011;56792;50.644;17.984;2024-03-23T05:43:38;19.30;;;11.60;;
69588;SDS011;56792;50.644;17.984;2024-03-23T05:46:08;22.10;;;12.60;;
69588;SDS011;56792;50.644;17.984;2024-03-23T05:48:39;22.30;;;13.00;;
69588;SDS011;56792;50.644;17.984;2024-03-23T05:51:09;20.90;;;12.70;;
69588;SDS011;56792;50.644;17.984;2024-03-23T05:53:40;24.20;;;13.20;;
69588;SDS011;56792;50.644;17.984;2024-03-23T05:56:11;20.90;;;13.50;;
69588;SDS011;56792;50.644;17.984;2024-03-23T05:58:41;20.40;;;12.90;;
69588;SDS011;56792;50.644;17.984;2024-03-23T06:01:12;21.90;;;12.50;;
69588;SDS011;56792;50.644;17.984;2024-03-23T06:03:42;20.60;;;12.10;;
69588;SDS011;56792;50.644;17.984;2024-03-23T06:06:13;20.80;;;13.00;;
69588;SDS011;56792;50.644;17.984;2024-03-23T06:08:43;20.10;;;12.10;;
69588;SDS011;56792;50.644;17.984;2024-03-23T06:11:14;24.50;;;12.40;;
69588;SDS011;56792;50.644;17.984;2024-03-23T06:13:44;20.40;;;12.40;;
69588;SDS011;56792;50.644;17.984;2024-03-23T06:16:15;21.30;;;11.70;;
69588;SDS011;56792;50.644;17.984;2024-03-23T06:18:51;19.30;;;12.00;;
69588;SDS011;56792;50.644;17.984;2024-03-23T06:21:22;19.40;;;11.50;;
69588;SDS011;56792;50.644;17.984;2024-03-23T06:23:54;17.60;;;11.20;;
69588;SDS011;56792;50.644;17.984;2024-03-23T06:26:24;20.40;;;11.90;;
69588;SDS011;56792;50.644;17.984;2024-03-23T06:28:55;22.50;;;11.60;;
69588;SDS011;56792;50.644;17.984;2024-03-23T06:31:26;21.00;;;12.10;;
69588;SDS011;56792;50.644;17.984;2024-03-23T06:33:57;24.90;;;13.30;;
69588;SDS011;56792;50.644;17.984;2024-03-23T06:36:29;20.00;;;12.20;;
69588;SDS011;56792;50.644;17.984;2024-03-23T06:39:00;18.60;;;12.10;;
69588;SDS011;56792;50.644;17.984;2024-03-23T06:41:31;18.50;;;12.10;;
69588;SDS011;56792;50.644;17.984;2024-03-23T06:44:01;18.60;;;11.00;;
69588;SDS011;56792;50.644;17.984;2024-03-23T06:46:32;20.60;;;12.00;;
69588;SDS011;56792;50.644;17.984;2024-03-23T06:49:02;20.70;;;12.00;;
69588;SDS011;56792;50.644;17.984;2024-03-23T06:51:34;24.40;;;12.00;;
69588;SDS011;56792;50.644;17.984;2024-03-23T06:54:05;20.80;;;11.30;;
69588;SDS011;56792;50.644;17.984;2024-03-23T06:56:36;20.80;;;11.50;;
69588;SDS011;56792;50.644;17.984;2024-03-23T06:59:07;20.10;;;11.80;;
69588;SDS011;56792;50.644;17.984;2024-03-23T07:01:37;21.60;;;11.50;;
69588;SDS011;56792;50.644;17.984;2024-03-23T07:04:08;19.90;;;12.10;;
69588;SDS011;56792;50.644;17.984;2024-03-23T07:06:44;17.30;;;11.00;;
69588;SDS011;56792;50.644;17.984;2024-03-23T07:09:15;17.70;;;11.60;;
69588;SDS011;56792;50.644;17.984;2024-03-23T07:11:46;17.40;;;11.30;;
69588;SDS011;56792;50.644;17.984;2024-03-23T07:14:16;19.20;;;10.00;;
69588;SDS011;56792;50.644;17.984;2024-03-23T07:16:47;19.70;;;11.70;;
69588;SDS011;56792;50.644;17.984;2024-03-23T07:19:18;19.30;;;11.00;;
69588;SDS011;56792;50.644;17.984;2024-03-23T07:21:48;20.20;;;11.80;;
69588;SDS011;56792;50.644;17.984;2024-03-23T07:24:19;16.90;;;11.10;;
69588;SDS011;56792;50.644;17.984;2024-03-23T07:26:49;20.80;;;12.30;;
69588;SDS011;56792;50.644;17.984;2024-03-23T07:29:22;19.00;;;12.30;;
69588;SDS011;56792;50.644;17.984;2024-03-23T07:31:52;22.90;;;11.60;;
69588;SDS011;56792;50.644;17.984;2024-03-23T07:34:23;15.70;;;10.50;;
69588;SDS011;56792;50.644;17.984;2024-03-23T07:36:53;19.10;;;11.70;;
69588;SDS011;56792;50.644;17.984;2024-03-23T07:39:24;19.60;;;12.10;;
69588;SDS011;56792;50.644;17.984;2024-03-23T07:41:55;18.40;;;10.80;;
69588;SDS011;56792;50.644;17.984;2024-03-23T07:44:26;17.00;;;10.70;;
69588;SDS011;56792;50.644;17.984;2024-03-23T07:46:56;15.80;;;10.20;;
69588;SDS011;56792;50.644;17.984;2024-03-23T07:49:27;17.20;;;11.20;;
69588;SDS011;56792;50.644;17.984;2024-03-23T07:51:58;17.80;;;10.50;;
69588;SDS011;56792;50.644;17.984;2024-03-23T07:54:28;18.60;;;12.00;;
69588;SDS011;56792;50.644;17.984;2024-03-23T07:56:59;16.40;;;10.10;;
69588;SDS011;56792;50.644;17.984;2024-03-23T07:59:29;17.00;;;10.90;;
69588;SDS011;56792;50.644;17.984;2024-03-23T08:02:01;17.30;;;9.90;;
69588;SDS011;56792;50.644;17.984;2024-03-23T08:04:32;14.40;;;9.80;;
69588;SDS011;56792;50.644;17.984;2024-03-23T08:07:03;15.80;;;9.90;;
69588;SDS011;56792;50.644;17.984;2024-03-23T08:09:33;16.70;;;10.30;;
69588;SDS011;56792;50.644;17.984;2024-03-23T08:12:04;15.80;;;10.60;;
69588;SDS011;56792;50.644;17.984;2024-03-23T08:14:35;16.10;;;10.90;;
69588;SDS011;56792;50.644;17.984;2024-03-23T08:17:06;18.80;;;9.50;;
69588;SDS011;56792;50.644;17.984;2024-03-23T08:19:36;16.00;;;10.30;;
69588;SDS011;56792;50.644;17.984;2024-03-23T08:22:07;16.00;;;10.00;;
69588;SDS011;56792;50.644;17.984;2024-03-23T08:24:37;15.30;;;9.20;;
69588;SDS011;56792;50.644;17.984;2024-03-23T08:27:08;15.00;;;9.20;;
69588;SDS011;56792;50.644;17.984;2024-03-23T08:29:38;12.60;;;9.10;;
69588;SDS011;56792;50.644;17.984;2024-03-23T08:32:09;17.30;;;9.30;;
69588;SDS011;56792;50.644;17.984;2024-03-23T08:34:40;13.00;;;9.10;;
69588;SDS011;56792;50.644;17.984;2024-03-23T08:37:10;12.70;;;7.90;;
69588;SDS011;56792;50.644;17.984;2024-03-23T08:39:42;14.90;;;9.00;;
69588;SDS011;56792;50.644;17.984;2024-03-23T08:42:13;14.10;;;9.30;;
69588;SDS011;56792;50.644;17.984;2024-03-23T08:44:44;12.10;;;8.00;;
69588;SDS011;56792;50.644;17.984;2024-03-23T08:47:17;12.00;;;8.30;;
69588;SDS011;56792;50.644;17.984;2024-03-23T08:49:47;12.50;;;8.10;;
69588;SDS011;56792;50.644;17.984;2024-03-23T08:52:18;10.40;;;7.50;;
69588;SDS011;56792;50.644;17.984;2024-03-23T08:54:50;12.90;;;8.00;;
69588;SDS011;56792;50.644;17.984;2024-03-23T08:57:21;11.40;;;7.80;;
69588;SDS011;56792;50.644;17.984;2024-03-23T08:59:52;12.60;;;8.30;;
69588;SDS011;56792;50.644;17.984;2024-03-23T09:02:22;12.90;;;7.90;;
69588;SDS011;56792;50.644;17.984;2024-03-23T09:04:53;11.90;;;8.30;;
69588;SDS011;56792;50.644;17.984;2024-03-23T09:07:24;11.70;;;8.00;;
69588;SDS011;56792;50.644;17.984;2024-03-23T09:09:54;12.90;;;9.00;;
69588;SDS011;56792;50.644;17.984;2024-03-23T09:12:25;13.10;;;8.50;;
69588;SDS011;56792;50.644;17.984;2024-03-23T09:14:55;13.00;;;9.80;;
69588;SDS011;56792;50.644;17.984;2024-03-23T09:17:26;10.80;;;8.50;;
69588;SDS011;56792;50.644;17.984;2024-03-23T09:19:56;11.50;;;7.40;;
69588;SDS011;56792;50.644;17.984;2024-03-23T09:22:27;10.50;;;7.20;;
69588;SDS011;56792;50.644;17.984;2024-03-23T09:24:57;13.10;;;8.60;;
69588;SDS011;56792;50.644;17.984;2024-03-23T09:27:28;9.90;;;7.10;;
69588;SDS011;56792;50.644;17.984;2024-03-23T09:29:58;10.40;;;7.20;;
69588;SDS011;56792;50.644;17.984;2024-03-23T09:32:29;12.10;;;7.40;;
69588;SDS011;56792;50.644;17.984;2024-03-23T09:34:59;11.60;;;7.50;;
69588;SDS011;56792;50.644;17.984;2024-03-23T09:37:29;10.90;;;7.20;;
69588;SDS011;56792;50.644;17.984;2024-03-23T09:40:00;13.30;;;8.10;;
69588;SDS011;56792;50.644;17.984;2024-03-23T09:42:31;11.10;;;6.60;;
69588;SDS011;56792;50.644;17.984;2024-03-23T09:45:02;11.20;;;8.20;;
69588;SDS011;56792;50.644;17.984;2024-03-23T09:47:53;10.80;;;7.80;;
69588;SDS011;56792;50.644;17.984;2024-03-23T09:50:24;10.90;;;7.30;;
69588;SDS011;56792;50.644;17.984;2024-03-23T09:52:55;11.20;;;8.00;;
69588;SDS011;56792;50.644;17.984;2024-03-23T09:55:25;9.70;;;7.60;;
69588;SDS011;56792;50.644;17.984;2024-03-23T09:57:56;10.50;;;7.90;;
69588;SDS011;56792;50.644;17.984;2024-03-23T10:00:26;11.00;;;8.70;;
69588;SDS011;56792;50.644;17.984;2024-03-23T10:02:57;10.60;;;7.80;;
69588;SDS011;56792;50.644;17.984;2024-03-23T10:05:30;10.00;;;7.50;;
69588;SDS011;56792;50.644;17.984;2024-03-23T10:08:18;9.80;;;7.50;;
69588;SDS011;56792;50.644;17.984;2024-03-23T10:10:49;11.70;;;7.90;;
69588;SDS011;56792;50.644;17.984;2024-03-23T10:13:29;9.50;;;7.60;;
69588;SDS011;56792;50.644;17.984;2024-03-23T10:16:00;11.50;;;7.50;;
69588;SDS011;56792;50.644;17.984;2024-03-23T10:18:31;9.40;;;7.20;;
69588;SDS011;56792;50.644;17.984;2024-03-23T10:21:09;8.60;;;7.30;;
69588;SDS011;56792;50.644;17.984;2024-03-23T10:23:42;8.50;;;6.80;;
69588;SDS011;56792;50.644;17.984;2024-03-23T10:26:18;9.90;;;7.00;;
69588;SDS011;56792;50.644;17.984;2024-03-23T10:28:55;12.40;;;7.70;;
69588;SDS011;56792;50.644;17.984;2024-03-23T10:31:29;11.10;;;7.90;;
69588;SDS011;56792;50.644;17.984;2024-03-23T10:34:00;10.70;;;7.20;;
69588;SDS011;56792;50.644;17.984;2024-03-23T10:36:32;9.30;;;7.90;;
69588;SDS011;56792;50.644;17.984;2024-03-23T10:39:03;10.60;;;8.10;;
69588;SDS011;56792;50.644;17.984;2024-03-23T10:41:36;8.40;;;7.10;;
69588;SDS011;56792;50.644;17.984;2024-03-23T10:44:09;7.50;;;5.90;;
69588;SDS011;56792;50.644;17.984;2024-03-23T10:46:39;7.70;;;5.70;;
69588;SDS011;56792;50.644;17.984;2024-03-23T10:49:10;7.90;;;6.00;;
69588;SDS011;56792;50.644;17.984;2024-03-23T10:51:40;9.40;;;6.80;;
69588;SDS011;56792;50.644;17.984;2024-03-23T10:54:11;8.00;;;6.30;;
69588;SDS011;56792;50.644;17.984;2024-03-23T10:56:42;10.10;;;6.50;;
69588;SDS011;56792;50.644;17.984;2024-03-23T10:59:15;8.30;;;6.10;;
69588;SDS011;56792;50.644;17.984;2024-03-23T11:01:56;10.20;;;7.00;;
69588;SDS011;56792;50.644;17.984;2024-03-23T11:04:35;9.10;;;6.60;;
69588;SDS011;56792;50.644;17.984;2024-03-23T11:07:32;9.90;;;6.90;;
69588;SDS011;56792;50.644;17.984;2024-03-23T11:10:03;7.50;;;6.50;;
69588;SDS011;56792;50.644;17.984;2024-03-23T11:12:58;6.40;;;5.30;;
69588;SDS011;56792;50.644;17.984;2024-03-23T11:15:49;5.30;;;4.50;;
69588;SDS011;56792;50.644;17.984;2024-03-23T11:18:22;6.00;;;5.20;;
69588;SDS011;56792;50.644;17.984;2024-03-23T11:20:53;6.00;;;5.30;;
69588;SDS011;56792;50.644;17.984;2024-03-23T11:23:29;5.60;;;5.00;;
69588;SDS011;56792;50.644;17.984;2024-03-23T11:26:00;6.40;;;4.70;;
69588;SDS011;56792;50.644;17.984;2024-03-23T11:28:31;5.60;;;4.70;;
69588;SDS011;56792;50.644;17.984;2024-03-23T11:31:02;7.40;;;6.70;;
69588;SDS011;56792;50.644;17.984;2024-03-23T11:33:39;5.90;;;5.20;;
69588;SDS011;56792;50.644;17.984;2024-03-23T11:36:10;6.20;;;4.80;;
69588;SDS011;56792;50.644;17.984;2024-03-23T11:38:47;4.90;;;4.40;;
69588;SDS011;56792;50.644;17.984;2024-03-23T11:41:18;5.90;;;4.80;;
69588;SDS011;56792;50.644;17.984;2024-03-23T11:43:48;5.80;;;4.80;;
69588;SDS011;56792;50.644;17.984;2024-03-23T11:46:24;7.20;;;4.60;;
69588;SDS011;56792;50.644;17.984;2024-03-23T11:48:55;6.60;;;4.70;;
69588;SDS011;56792;50.644;17.984;2024-03-23T11:51:25;5.70;;;4.60;;
69588;SDS011;56792;50.644;17.984;2024-03-23T11:54:09;6.00;;;4.70;;
69588;SDS011;56792;50.644;17.984;2024-03-23T11:56:40;5.70;;;4.30;;
69588;SDS011;56792;50.644;17.984;2024-03-23T11:59:33;6.80;;;4.60;;
69588;SDS011;56792;50.644;17.984;2024-03-23T12:02:08;4.80;;;4.10;;
69588;SDS011;56792;50.644;17.984;2024-03-23T12:04:41;6.50;;;5.20;;
69588;SDS011;56792;50.644;17.984;2024-03-23T12:07:13;5.60;;;5.00;;
69588;SDS011;56792;50.644;17.984;2024-03-23T12:09:46;5.40;;;4.20;;
69588;SDS011;56792;50.644;17.984;2024-03-23T12:12:31;7.00;;;6.30;;
69588;SDS011;56792;50.644;17.984;2024-03-23T12:15:05;13.70;;;10.10;;
69588;SDS011;56792;50.644;17.984;2024-03-23T12:17:36;8.20;;;5.10;;
69588;SDS011;56792;50.644;17.984;2024-03-23T12:20:08;5.40;;;4.90;;
69588;SDS011;56792;50.644;17.984;2024-03-23T12:22:39;7.90;;;5.80;;
69588;SDS011;56792;50.644;17.984;2024-03-23T12:25:10;8.00;;;5.70;;
69588;SDS011;56792;50.644;17.984;2024-03-23T12:27:40;5.50;;;4.40;;
69588;SDS011;56792;50.644;17.984;2024-03-23T12:30:12;7.20;;;5.60;;
69588;SDS011;56792;50.644;17.984;2024-03-23T12:32:43;9.50;;;5.60;;
69588;SDS011;56792;50.644;17.984;2024-03-23T12:35:13;7.30;;;6.50;;
69588;SDS011;56792;50.644;17.984;2024-03-23T12:37:44;7.30;;;5.20;;
69588;SDS011;56792;50.644;17.984;2024-03-23T12:40:15;6.50;;;5.10;;
69588;SDS011;56792;50.644;17.984;2024-03-23T12:42:45;5.30;;;4.30;;
69588;SDS011;56792;50.644;17.984;2024-03-23T12:45:16;5.80;;;4.60;;
69588;SDS011;56792;50.644;17.984;2024-03-23T12:47:46;6.20;;;5.50;;
69588;SDS011;56792;50.644;17.984;2024-03-23T12:50:17;6.10;;;5.50;;
69588;SDS011;56792;50.644;17.984;2024-03-23T12:52:48;7.20;;;4.60;;
69588;SDS011;56792;50.644;17.984;2024-03-23T12:55:19;6.30;;;4.60;;
69588;SDS011;56792;50.644;17.984;2024-03-23T12:57:50;7.60;;;5.30;;
69588;SDS011;56792;50.644;17.984;2024-03-23T13:00:20;7.60;;;5.10;;
69588;SDS011;56792;50.644;17.984;2024-03-23T13:02:51;7.60;;;5.40;;
69588;SDS011;56792;50.644;17.984;2024-03-23T13:05:21;6.80;;;5.00;;
69588;SDS011;56792;50.644;17.984;2024-03-23T13:07:52;6.50;;;5.20;;
69588;SDS011;56792;50.644;17.984;2024-03-23T13:10:22;8.30;;;6.30;;
69588;SDS011;56792;50.644;17.984;2024-03-23T13:12:53;6.50;;;4.90;;
69588;SDS011;56792;50.644;17.984;2024-03-23T13:15:24;6.50;;;5.20;;
69588;SDS011;56792;50.644;17.984;2024-03-23T13:17:54;6.20;;;5.20;;
69588;SDS011;56792;50.644;17.984;2024-03-23T13:20:24;7.00;;;5.90;;
69588;SDS011;56792;50.644;17.984;2024-03-23T13:22:55;5.80;;;4.10;;
69588;SDS011;56792;50.644;17.984;2024-03-23T13:25:25;6.00;;;4.70;;
69588;SDS011;56792;50.644;17.984;2024-03-23T13:27:56;7.60;;;4.70;;
69588;SDS011;56792;50.644;17.984;2024-03-23T13:30:27;6.60;;;4.40;;
69588;SDS011;56792;50.644;17.984;2024-03-23T13:32:57;6.10;;;4.10;;
69588;SDS011;56792;50.644;17.984;2024-03-23T13:35:28;5.90;;;4.90;;
69588;SDS011;56792;50.644;17.984;2024-03-23T13:37:59;5.70;;;5.10;;
69588;SDS011;56792;50.644;17.984;2024-03-23T13:40:30;4.80;;;4.30;;
69588;SDS011;56792;50.644;17.984;2024-03-23T13:43:00;5.20;;;4.10;;
69588;SDS011;56792;50.644;17.984;2024-03-23T13:45:31;5.20;;;4.40;;
69588;SDS011;56792;50.644;17.984;2024-03-23T13:48:05;5.30;;;3.50;;
69588;SDS011;56792;50.644;17.984;2024-03-23T13:50:36;5.60;;;4.40;;
69588;SDS011;56792;50.644;17.984;2024-03-23T13:53:06;4.90;;;4.20;;
69588;SDS011;56792;50.644;17.984;2024-03-23T13:55:37;4.80;;;4.20;;
69588;SDS011;56792;50.644;17.984;2024-03-23T13:58:14;6.30;;;4.10;;
69588;SDS011;56792;50.644;17.984;2024-03-23T14:00:45;6.60;;;4.70;;
69588;SDS011;56792;50.644;17.984;2024-03-23T14:03:15;5.10;;;3.90;;
69588;SDS011;56792;50.644;17.984;2024-03-23T14:05:46;5.30;;;4.20;;
69588;SDS011;56792;50.644;17.984;2024-03-23T14:08:17;6.00;;;4.20;;
69588;SDS011;56792;50.644;17.984;2024-03-23T14:10:49;6.40;;;4.60;;
69588;SDS011;56792;50.644;17.984;2024-03-23T14:13:20;5.40;;;4.40;;
69588;SDS011;56792;50.644;17.984;2024-03-23T14:15:54;6.10;;;4.40;;
69588;SDS011;56792;50.644;17.984;2024-03-23T14:18:25;6.90;;;5.00;;
69588;SDS011;56792;50.644;17.984;2024-03-23T14:20:59;6.10;;;4.70;;
69588;SDS011;56792;50.644;17.984;2024-03-23T14:23:31;5.60;;;4.30;;
69588;SDS011;56792;50.644;17.984;2024-03-23T14:26:02;6.00;;;4.80;;
69588;SDS011;56792;50.644;17.984;2024-03-23T14:28:33;7.60;;;5.40;;
69588;SDS011;56792;50.644;17.984;2024-03-23T14:31:04;7.30;;;5.50;;
69588;SDS011;56792;50.644;17.984;2024-03-23T14:33:38;5.80;;;4.80;;
69588;SDS011;56792;50.644;17.984;2024-03-23T14:36:14;6.80;;;6.10;;
69588;SDS011;56792;50.644;17.984;2024-03-23T14:38:48;10.00;;;7.20;;
69588;SDS011;56792;50.644;17.984;2024-03-23T14:41:20;5.90;;;5.20;;
69588;SDS011;56792;50.644;17.984;2024-03-23T14:43:50;6.10;;;5.40;;
69588;SDS011;56792;50.644;17.984;2024-03-23T14:46:22;11.30;;;6.20;;
69588;SDS011;56792;50.644;17.984;2024-03-23T14:48:52;7.80;;;6.10;;
69588;SDS011;56792;50.644;17.984;2024-03-23T14:51:23;8.00;;;5.80;;
69588;SDS011;56792;50.644;17.984;2024-03-23T14:53:55;7.80;;;5.90;;
69588;SDS011;56792;50.644;17.984;2024-03-23T14:56:25;7.50;;;6.00;;
69588;SDS011;56792;50.644;17.984;2024-03-23T14:58:56;6.00;;;4.70;;
69588;SDS011;56792;50.644;17.984;2024-03-23T15:01:26;8.10;;;5.70;;
69588;SDS011;56792;50.644;17.984;2024-03-23T15:03:57;8.20;;;4.90;;
69588;SDS011;56792;50.644;17.984;2024-03-23T15:06:27;7.20;;;5.10;;
69588;SDS011;56792;50.644;17.984;2024-03-23T15:08:58;5.90;;;4.40;;
69588;SDS011;56792;50.644;17.984;2024-03-23T15:11:28;7.70;;;4.70;;
69588;SDS011;56792;50.644;17.984;2024-03-23T15:14:00;7.80;;;4.40;;
69588;SDS011;56792;50.644;17.984;2024-03-23T15:16:30;7.50;;;4.70;;
69588;SDS011;56792;50.644;17.984;2024-03-23T15:19:01;5.90;;;4.50;;
69588;SDS011;56792;50.644;17.984;2024-03-23T15:21:33;5.40;;;3.40;;
69588;SDS011;56792;50.644;17.984;2024-03-23T15:24:05;5.90;;;3.70;;
69588;SDS011;56792;50.644;17.984;2024-03-23T15:26:38;4.60;;;4.00;;
69588;SDS011;56792;50.644;17.984;2024-03-23T15:29:09;4.50;;;3.50;;
69588;SDS011;56792;50.644;17.984;2024-03-23T15:31:44;4.80;;;3.60;;
69588;SDS011;56792;50.644;17.984;2024-03-23T15:34:14;5.40;;;3.30;;
69588;SDS011;56792;50.644;17.984;2024-03-23T15:36:45;4.80;;;3.80;;